Flight Track Log - Related Links

Times and Time Zones

All times are in EDT time to prevent confusion due to time zone crossing. See the N8324T flight status page for this flight to view local times or setup timezone preferences in your user account.

Time Position Orientation Groundspeed Altitude Reporting Facility
EDT Latitude Longitude Course Direction KTS MPH feet Rate Location/Type
Thu 02:35:28 PM 35.3500 -82.7094 305° West 113 130 9,000  Level Atlanta Center
Thu 02:36:28 PM 35.3672 -82.7400 305° West 113 130 9,300 300 Climbing Atlanta Center
Thu 02:37:28 PM 35.3842 -82.7728 302° West 108 124 9,600 250 Climbing Atlanta Center
Thu 02:38:28 PM 35.3969 -82.8081 294° West 113 130 9,800 200 Climbing Atlanta Center
Thu 02:39:28 PM 35.4161 -82.8436 303° West 113 130 10,000 200 Climbing Atlanta Center
Thu 02:40:28 PM 35.4311 -82.8764 299° West 113 130 10,200 250 Climbing Atlanta Center
Thu 02:41:28 PM 35.4525 -82.9194 301° West 124 143 10,500 250 Climbing Atlanta Center
Thu 02:42:28 PM 35.4653 -82.9525 295° West 119 137 10,700 100 Climbing Atlanta Center
Thu 02:43:28 PM 35.4822 -82.9881 300° West 119 137 10,700  Level Atlanta Center
Thu 02:44:28 PM 35.5014 -83.0261 302° West 119 137 10,700  Level Atlanta Center
Thu 02:45:28 PM 35.5183 -83.0642 299° West 130 150 10,700  Level Atlanta Center
Thu 02:46:28 PM 35.5333 -83.1047 294° West 135 155 10,700  Level Atlanta Center
Thu 02:47:28 PM 35.5503 -83.1481 296° West 135 155 10,700  Level Atlanta Center
Thu 02:48:28 PM 35.5692 -83.1886 300° West 135 155 10,700 -50 Level Atlanta Center
Thu 02:49:28 PM 35.5864 -83.2319 296° West 140 161 10,600 -50 Descending Atlanta Center
Thu 02:50:28 PM 35.6094 -83.2725 305° West 140 161 10,600  Level Atlanta Center
Thu 02:51:28 PM 35.6306 -83.3106 304° West 140 161 10,600  Level Atlanta Center
Thu 02:52:28 PM 35.6536 -83.3514 305° West 140 161 10,600  Level Atlanta Center
Thu 02:53:28 PM 35.6769 -83.3842 311° West 140 161 10,600  Level Atlanta Center
Thu 02:54:28 PM 35.7022 -83.4225 309° West 140 161 10,600  Level Atlanta Center
Thu 02:55:28 PM 35.7169 -83.4633 294° West 140 161 10,600  Level Atlanta Center
Thu 02:56:28 PM 35.7381 -83.5042 303° West 140 161 10,600  Level Atlanta Center
Thu 02:57:28 PM 35.7547 -83.5447 297° West 140 161 10,600  Level Atlanta Center
Thu 02:58:28 PM 35.7739 -83.5883 298° West 140 161 10,600  Level Atlanta Center
Thu 02:59:28 PM 35.7928 -83.6292 300° West 140 161 10,600  Level Atlanta Center
Thu 03:00:28 PM 35.8117 -83.6675 301° West 140 161 10,600  Level Atlanta Center
Thu 03:01:28 PM 35.8283 -83.7108 295° West 140 161 10,600  Level Atlanta Center
Thu 03:02:28 PM 35.8453 -83.7544 296° West 140 161 10,600  Level Atlanta Center
Thu 03:03:28 PM 35.8642 -83.7978 298° West 140 161 10,600  Level Atlanta Center
Thu 03:04:28 PM 35.8808 -83.8364 298° West 140 161 10,600  Level Atlanta Center
Thu 03:05:28 PM 35.8997 -83.8825 297° West 140 161 10,600  Level Atlanta Center
Thu 03:06:28 PM 35.9164 -83.9233 297° West 140 161 10,600  Level Atlanta Center
Thu 03:07:28 PM 35.9353 -83.9669 298° West 140 161 10,600  Level Atlanta Center
Thu 03:08:28 PM 35.9539 -84.0081 299° West 140 161 10,600  Level Atlanta Center
Thu 03:09:28 PM 35.9747 -84.0489 302° West 140 161 10,600  Level Atlanta Center
Thu 03:10:28 PM 35.9914 -84.0953 294° West 140 161 10,600  Level Atlanta Center
Thu 03:11:28 PM 36.0103 -84.1364 300° West 140 161 10,600  Level Atlanta Center
Thu 03:12:28 PM 36.0311 -84.1775 302° West 140 161 10,600  Level Atlanta Center
Thu 03:13:28 PM 36.0519 -84.2186 302° West 140 161 10,600  Level Atlanta Center
Thu 03:14:28 PM 36.0686 -84.2622 295° West 140 161 10,600  Level Atlanta Center
Thu 03:15:28 PM 36.0872 -84.3058 298° West 140 161 10,600  Level Atlanta Center
Thu 03:16:28 PM 36.1058 -84.3472 299° West 140 161 10,600  Level Atlanta Center
Thu 03:17:28 PM 36.1286 -84.3883 304° West 140 161 10,600 57 Level Atlanta Center
Thu 03:18:14 PM 36.1514 -84.4147 317° Northwest 145 167 10,700 56 Climbing Indianapolis Center
Thu 03:19:15 PM 36.1769 -84.4506 311° West 141 162 10,700  Level Indianapolis Center
Thu 03:20:18 PM 36.2028 -84.4892 310° West 144 166 10,700  Level Indianapolis Center
Thu 03:21:19 PM 36.2281 -84.5283 309° West 146 168 10,700  Level Indianapolis Center
Thu 03:22:20 PM 36.2592 -84.5747 310° West 146 168 10,700  Level Indianapolis Center
Thu 03:23:24 PM 36.2814 -84.6158 304° West 144 166 10,700  Level Indianapolis Center
Thu 03:24:26 PM 36.3047 -84.6558 306° West 144 166 10,700  Level Indianapolis Center
Thu 03:25:26 PM 36.3283 -84.6950 307° West 142 163 10,700  Level Indianapolis Center
Thu 03:26:30 PM 36.3514 -84.7353 305° West 143 165 10,700  Level Indianapolis Center
Thu 03:27:30 PM 36.3761 -84.7867 301° West 146 168 10,700  Level Indianapolis Center
Thu 03:28:34 PM 36.3967 -84.8306 300° West 147 169 10,700  Level Indianapolis Center
Thu 03:29:34 PM 36.4156 -84.8733 299° West 144 166 10,700  Level Indianapolis Center
Thu 03:30:38 PM 36.4344 -84.9169 298° West 144 166 10,700  Level Indianapolis Center
Thu 03:31:38 PM 36.4511 -84.9614 295° West 144 166 10,700  Level Indianapolis Center
Thu 03:32:42 PM 36.4706 -85.0042 299° West 144 166 10,700  Level Indianapolis Center
Thu 03:33:42 PM 36.4925 -85.0567 297° West 143 165 10,700  Level Indianapolis Center
Thu 03:34:46 PM 36.5114 -85.1006 298° West 143 165 10,700  Level Indianapolis Center
Thu 03:35:46 PM 36.5297 -85.1447 297° West 144 166 10,700  Level Indianapolis Center
Thu 03:36:50 PM 36.5467 -85.1883 296° West 141 162 10,700  Level Indianapolis Center
Thu 03:37:52 PM 36.5647 -85.2328 297° West 143 165 10,700  Level Indianapolis Center
Thu 03:38:55 PM 36.5836 -85.2767 298° West 144 166 10,700  Level Indianapolis Center
Thu 03:39:57 PM 36.6069 -85.3297 299° West 145 167 10,700  Level Indianapolis Center
Thu 03:40:57 PM 36.6253 -85.3739 297° West 145 167 10,700  Level Indianapolis Center
Thu 03:42:01 PM 36.6431 -85.4175 297° West 141 162 10,700  Level Indianapolis Center
Thu 03:43:01 PM 36.6603 -85.4611 296° West 142 163 10,700  Level Indianapolis Center
Thu 03:44:05 PM 36.6792 -85.5061 298° West 143 165 10,700  Level Indianapolis Center
Thu 03:45:05 PM 36.6961 -85.5500 296° West 141 162 10,700  Level Indianapolis Center
Thu 03:46:09 PM 36.7192 -85.6031 298° West 145 167 10,700  Level Indianapolis Center
Thu 03:47:09 PM 36.7367 -85.6472 296° West 142 163 10,700  Level Indianapolis Center
Thu 03:48:13 PM 36.7547 -85.6917 297° West 144 166 10,700  Level Indianapolis Center
Thu 03:49:13 PM 36.7747 -85.7389 298° West 147 169 10,700  Level Indianapolis Center
Thu 03:50:17 PM 36.7928 -85.7831 297° West 142 163 10,700  Level Indianapolis Center
Thu 03:51:17 PM 36.8094 -85.8281 295° West 141 162 10,700 -48 Level Indianapolis Center
Thu 03:52:21 PM 36.8278 -85.8717 298° West 141 162 10,600 -37 Descending Indianapolis Center
Thu 03:54:01 PM 36.8586 -85.9472 297° West 145 167 10,600  Level Indianapolis Center
Thu 03:55:02 PM 36.8769 -85.9914 297° West 143 165 10,600  Level Indianapolis Center
Thu 03:56:06 PM 36.8947 -86.0356 297° West 143 165 10,600  Level Indianapolis Center
Thu 03:57:06 PM 36.9158 -86.0872 297° West 144 166 10,600  Level Indianapolis Center
Thu 03:58:10 PM 36.9322 -86.1322 295° West 143 165 10,600  Level Indianapolis Center
Thu 03:59:10 PM 36.9508 -86.1764 298° West 145 167 10,600  Level Indianapolis Center
Thu 04:00:14 PM 36.9689 -86.2203 297° West 142 163 10,600  Level Indianapolis Center
Thu 04:01:15 PM 36.9881 -86.2650 298° West 146 168 10,600  Level Indianapolis Center
Thu 04:02:16 PM 37.0050 -86.3069 297° West 139 160 10,600  Level Indianapolis Center
Thu 04:03:20 PM 37.0225 -86.3506 297° West 139 160 10,600  Level Indianapolis Center
Thu 04:04:07 PM 37.0392 -86.3911 297° West 146 168 10,600  Level Memphis Center
Thu 04:05:07 PM 37.0553 -86.4372 294° West 146 168 10,600  Level Memphis Center
Thu 04:06:07 PM 37.0733 -86.4778 299° West 146 168 10,600  Level Memphis Center
Thu 04:07:07 PM 37.0914 -86.5211 298° West 146 168 10,600  Level Memphis Center
Thu 04:08:07 PM 37.1094 -86.5669 296° West 146 168 10,600  Level Memphis Center
Thu 04:09:07 PM 37.1294 -86.6131 299° West 146 168 10,600  Level Memphis Center
Thu 04:10:33 PM 37.1503 -86.6683 295° West 138 159 10,600  Level Indianapolis Center
Thu 04:11:37 PM 37.1717 -86.7189 298° West 138 159 10,600 -96 Level Indianapolis Center
Thu 04:12:38 PM 37.1886 -86.7650 295° West 141 162 10,400 -198 Descending Indianapolis Center
Thu 04:13:38 PM 37.2081 -86.8111 298° West 145 167 10,200 -145 Descending Indianapolis Center
Thu 04:14:42 PM 37.2272 -86.8581 297° West 148 170 10,100 -144 Descending Indianapolis Center
Thu 04:15:43 PM 37.2456 -86.9056 296° West 149 171 9,900 -148 Descending Indianapolis Center
Thu 04:16:44 PM 37.2650 -86.9525 298° West 148 170 9,800 -96 Descending Indianapolis Center
Thu 04:17:48 PM 37.2833 -87.0017 295° West 153 176 9,700 -96 Descending Indianapolis Center
Thu 04:18:49 PM 37.3025 -87.0475 298° West 150 173 9,600 -144 Descending Indianapolis Center
Thu 04:19:53 PM 37.3233 -87.1025 295° West 146 168 9,400 -242 Descending Indianapolis Center
Thu 04:20:53 PM 37.3428 -87.1511 297° West 150 173 9,100 -197 Descending Indianapolis Center
Thu 04:21:55 PM 37.3608 -87.1972 296° West 149 171 9,000 -194 Descending Indianapolis Center
Thu 04:22:57 PM 37.3803 -87.2439 298° West 149 171 8,700 -238 Descending Indianapolis Center
Thu 04:24:01 PM 37.3992 -87.2914 297° West 151 174 8,500 -145 Descending Indianapolis Center
Thu 04:25:01 PM 37.4178 -87.3394 296° West 152 175 8,400 -98 Descending Indianapolis Center
Thu 04:26:03 PM 37.4372 -87.3844 299° West 150 173 8,300 -143 Descending Indianapolis Center
Thu 04:27:07 PM 37.4569 -87.4331 297° West 152 175 8,100 -192 Descending Indianapolis Center
Thu 04:28:08 PM 37.4783 -87.4892 296° West 149 171 7,900 -194 Descending Indianapolis Center
Thu 04:29:11 PM 37.4969 -87.5353 297° West 148 170 7,700 -194 Descending Indianapolis Center
Thu 04:30:12 PM 37.5144 -87.5819 295° West 147 169 7,500 -192 Descending Indianapolis Center
Thu 04:31:16 PM 37.5333 -87.6314 296° West 152 175 7,300 -194 Descending Indianapolis Center
Thu 04:32:16 PM 37.5517 -87.6794 296° West 153 176 7,100 -195 Descending Indianapolis Center
Thu 04:33:19 PM 37.5708 -87.7269 297° West 152 175 6,900 -194 Descending Indianapolis Center
Thu 04:34:20 PM 37.5889 -87.7744 296° West 150 173 6,700 -96 Descending Indianapolis Center
Thu 04:35:24 PM 37.6117 -87.8311 297° West 152 175 6,700  Level Indianapolis Center
Thu 04:36:26 PM 37.6292 -87.8803 294° West 153 176 6,700  Level Indianapolis Center
Thu 04:37:26 PM 37.6469 -87.9286 295° West 152 175 6,700  Level Indianapolis Center
Thu 04:38:30 PM 37.6653 -87.9772 295° West 152 175 6,700  Level Indianapolis Center
Thu 04:39:31 PM 37.6844 -88.0256 297° West 153 176 6,700  Level Indianapolis Center
Thu 04:40:32 PM 37.7028 -88.0744 295° West 153 176 6,700  Level Indianapolis Center
Thu 04:41:35 PM 37.7203 -88.1239 294° West 153 176 6,700  Level Indianapolis Center
Thu 04:42:36 PM 37.7422 -88.1814 296° West 151 174 6,700  Level Indianapolis Center
Thu 04:43:40 PM 37.7619 -88.2300 297° West 154 177 6,700  Level Indianapolis Center
Thu 04:44:42 PM 37.7814 -88.2781 297° West 154 177 6,700  Level Indianapolis Center
Thu 04:45:42 PM 37.8014 -88.3264 298° West 154 177 6,700  Level Indianapolis Center
Thu 04:46:46 PM 37.8197 -88.3733 296° West 153 176 6,700  Level Indianapolis Center
Thu 04:47:46 PM 37.8383 -88.4225 296° West 153 176 6,700  Level Indianapolis Center
Thu 04:48:50 PM 37.8558 -88.4694 295° West 150 173 6,700  Level Indianapolis Center
Thu 04:49:52 PM 37.8767 -88.5269 295° West 149 171 6,700 -49 Level Indianapolis Center
Thu 04:50:52 PM 37.8953 -88.5753 296° West 150 173 6,600 -48 Descending Indianapolis Center
Thu 04:51:56 PM 37.9125 -88.6222 295° West 149 171 6,600  Level Indianapolis Center
Thu 04:52:57 PM 37.9311 -88.6703 296° West 150 173 6,600  Level Indianapolis Center
Thu 04:54:00 PM 37.9500 -88.7169 297° West 149 171 6,600  Level Indianapolis Center
Thu 04:55:02 PM 37.9692 -88.7650 297° West 150 173 6,600  Level Indianapolis Center
Thu 04:56:05 PM 37.9875 -88.8131 296° West 151 174 6,600  Level Indianapolis Center
Thu 04:57:05 PM 38.0044 -88.8606 294° West 150 173 6,600  Level Indianapolis Center
Thu 04:58:09 PM 38.0256 -88.9178 295° West 149 171 6,600  Level Indianapolis Center
Thu 04:59:31 PM 38.0500 -88.9803 296° West 146 168 6,600  Level Kansas City Center
Thu 05:00:33 PM 38.0708 -89.0322 297° West 148 170 6,600 49 Level Kansas City Center
Thu 05:01:34 PM 38.0864 -89.0806 292° West 150 173 6,700 49 Climbing Kansas City Center
Thu 05:02:35 PM 38.1067 -89.1278 299° West 151 174 6,700  Level Kansas City Center
Thu 05:03:39 PM 38.1256 -89.1794 295° West 150 173 6,700  Level Kansas City Center
Thu 05:04:40 PM 38.1436 -89.2278 295° West 151 174 6,700  Level Kansas City Center
Thu 05:05:43 PM 38.1619 -89.2789 295° West 149 171 6,700  Level Kansas City Center
Thu 05:06:45 PM 38.1794 -89.3264 295° West 149 171 6,700  Level Kansas City Center
Thu 05:07:48 PM 38.1992 -89.3772 296° West 149 171 6,700 -146 Level Kansas City Center
Thu 05:08:48 PM 38.2169 -89.4253 295° West 151 174 6,400 -339 Descending Kansas City Center
Thu 05:09:52 PM 38.2372 -89.4775 296° West 153 176 6,000 -384 Descending Kansas City Center
Thu 05:10:53 PM 38.2550 -89.5239 296° West 146 168 5,600 -344 Descending Kansas City Center
Thu 05:11:54 PM 38.2722 -89.5736 294° West 152 175 5,300 -339 Descending Kansas City Center
Thu 05:12:57 PM 38.2922 -89.6250 296° West 151 174 4,900 -339 Descending Kansas City Center
Thu 05:13:58 PM 38.3089 -89.6744 293° West 151 174 4,600 -144 Descending Kansas City Center
Thu 05:15:02 PM 38.3231 -89.7172 293° West 149 171 4,600  Level Kansas City Center
Thu 05:16:03 PM 38.3417 -89.7639 297° West 148 170 4,600  Level Kansas City Center
Thu 05:17:07 PM 38.3628 -89.8189 296° West 146 168 4,600  Level Kansas City Center
Thu 05:18:08 PM 38.3811 -89.8636 298° West 144 166 4,600  Level Kansas City Center
Thu 05:19:11 PM 38.3933 -89.9114 288° West 143 165 4,600 -194 Level Kansas City Center
Thu 05:20:12 PM 38.3986 -89.9614 278° West 142 163 4,200 -446 Descending Kansas City Center
Thu 05:21:12 PM 38.4056 -90.0086 281° West 140 161 3,700 -290 Descending Kansas City Center
Thu 05:22:16 PM 38.4119 -90.0569 280° West 138 159 3,600 -48 Descending Kansas City Center
Thu 05:23:17 PM 38.4267 -90.1100 290° West 136 157 3,600  Level Kansas City Center
Thu 05:24:18 PM 38.4483 -90.1536 302° West 140 161 3,600  Level Kansas City Center
Thu 05:25:22 PM 38.4683 -90.1994 299° West 144 166 3,600  Level Kansas City Center
Thu 05:26:25 PM 38.4869 -90.2456 297° West 146 168 3,600  Level Kansas City Center
Thu 05:27:25 PM 38.5056 -90.2914 297° West 146 168 3,600  Level Kansas City Center
Thu 05:28:29 PM 38.5244 -90.3381 297° West 146 168 3,600  Level Kansas City Center
Thu 05:29:29 PM 38.5442 -90.3947 294° West 146 168 3,600 -48 Level Kansas City Center
Thu 05:30:33 PM 38.5619 -90.4400 297° West 144 166 3,500 -238 Descending Kansas City Center
Thu 05:31:35 PM 38.5814 -90.4881 297° West 147 169 3,100 -246 Descending Kansas City Center
Thu 05:32:35 PM 38.5997 -90.5356 296° West 149 171 3,000 -242 Descending Kansas City Center
Thu 05:33:39 PM 38.6167 -90.5806 296° West 144 166 2,600 -432 Descending Kansas City Center
Thu 05:34:40 PM 38.6244 -90.6264 282° West 136 157 2,100 -339 Descending Kansas City Center
Thu 05:35:43 PM 38.6272 -90.6686 275° West 128 147 1,900 -336 Descending Kansas City Center
Thu 05:36:45 PM 38.6506 -90.6908 323° Northwest 113 130 1,400 -639 Descending Kansas City Center
Thu 05:37:45 PM 38.6581 -90.6586 73° East 100 115 600 -800 Descending Kansas City Center

Login

Don't have an account? Register now (free) for customized features, flight alerts, and more!